Burton, Texas
Current Conditions -  °F | °C
As of 11:15 AM on Saturday 25 Oct 2014 (Local Time) from K11R Reporting Station
Clear Clear  
Wind Chill: 79°   Ceiling: Unl
Heat Index: 80°   Visibility: 10mi
Dew Point: 60°   Wind: 3mph
Humidity: 52%   Direction: 230°SW
Pressure: 30.2"   Gusts: NA
Location:  30.18°N, 96.6°W
Report Text: K11R 251615Z AUTO 23003KT 10SM CLR 26/16 A3020 RMK AO2 T02610155
Loading
Personal Weather Stations






























Interactive Weather Map New forecast layout! Learn more

10-Day Weather Forecast

Advertisements
Track Severe Weather on mobile